KFXY/FXY METAR and TAF weather

Enter ICAO airport designator
Station Type Date Time Source
KFXY METAR 2022/06/27 07:35 UTC NOAA

KFXY 270735Z AUTO 00000KT 10SM CLR 11/07 A3028 RMK AO2


Station Type Date Time Source
KFXY Decoded METAR 2022/06/27 07:35 UTC NOAA

Station name not available
Jun 27, 2022 - 03:35 AM EDT / 2022.06.27 0735 UTC
Wind: Calm:0
Visibility: 10 mile(s):0
Sky conditions: clear
Temperature: 51 F (11 C)
Dew Point: 44 F (7 C)
Relative Humidity: 76%
Pressure (altimeter): 30.28 in. Hg (1025 hPa)
ob: KFXY 270735Z AUTO 00000KT 10SM CLR 11/07 A3028 RMK AO2
cycle: 7

Station Type Date Time Source
KFXY TAF UTC NOAA

Error!

Example: see airport list